Time;durP1;ratioP1;P1;durP2;ratioP2;P2;SDS_P1;SDS_P2;PMS_P1;PMS_P2;Temp;Humidity;BMP_temperature;BMP_pressure;BME280_temperature;BME280_humidity;BME280_pressure;Samples;Min_cycle;Max_cycle;Signal;HPM_P1;HPM_P2
2021/07/25 00:01:36;;;;;;;17.17;15.40;;;;;;;;;;5069542;28;20498;-71
2021/07/25 00:04:02;;;;;;;17.37;15.77;;;;;;;;;;5069765;28;20412;-72
2021/07/25 00:06:28;;;;;;;18.00;16.10;;;;;;;;;;5070304;28;20982;-72
2021/07/25 00:08:54;;;;;;;18.43;16.03;;;;;;;;;;5069396;28;20418;-68
2021/07/25 00:11:20;;;;;;;18.10;15.83;;;;;;;;;;5068280;28;20430;-71
2021/07/25 00:13:51;;;;;;;17.73;15.97;;;;;;;;;;5069650;28;20430;-71
2021/07/25 00:16:17;;;;;;;19.03;17.10;;;;;;;;;;5069673;28;20848;-70
2021/07/25 00:18:43;;;;;;;16.87;15.20;;;;;;;;;;5069143;28;20407;-72
2021/07/25 00:21:09;;;;;;;16.80;15.10;;;;;;;;;;5069230;28;20915;-71
2021/07/25 00:23:35;;;;;;;15.50;13.90;;;;;;;;;;5069453;28;20458;-71
2021/07/25 00:26:01;;;;;;;16.30;14.60;;;;;;;;;;5067958;28;20974;-69
2021/07/25 00:28:34;;;;;;;16.13;14.53;;;;;;;;;;5069116;28;20414;-72
2021/07/25 00:31:02;;;;;;;18.43;14.60;;;;;;;;;;5072253;28;20510;-71
2021/07/25 00:33:30;;;;;;;16.60;15.00;;;;;;;;;;5073125;28;20442;-70
2021/07/25 00:35:56;;;;;;;17.70;15.57;;;;;;;;;;5073136;28;20406;-74
2021/07/25 00:38:22;;;;;;;17.30;15.60;;;;;;;;;;5072858;28;20403;-72
2021/07/25 00:40:51;;;;;;;17.67;15.90;;;;;;;;;;5071586;28;20501;-71
2021/07/25 00:43:27;;;;;;;17.47;15.67;;;;;;;;;;5072178;28;20462;-73
2021/07/25 00:45:54;;;;;;;16.50;14.90;;;;;;;;;;5072935;28;20761;-70
2021/07/25 00:48:20;;;;;;;18.53;16.60;;;;;;;;;;5071509;28;20539;-71
2021/07/25 00:50:46;;;;;;;15.93;13.97;;;;;;;;;;5071483;28;20433;-72
2021/07/25 00:53:12;;;;;;;15.87;14.27;;;;;;;;;;5073080;28;20441;-72
2021/07/25 00:55:40;;;;;;;15.57;14.10;;;;;;;;;;5072947;28;20442;-71
2021/07/25 00:58:06;;;;;;;16.40;13.77;;;;;;;;;;5072889;28;20421;-70
2021/07/25 01:00:32;;;;;;;15.70;14.20;;;;;;;;;;5073057;28;20418;-69
2021/07/25 01:03:13;;;;;;;15.80;13.63;;;;;;;;;;5072556;28;21028;-70
2021/07/25 01:05:39;;;;;;;15.40;13.93;;;;;;;;;;5073156;28;20491;-72
2021/07/25 01:08:10;;;;;;;15.63;14.17;;;;;;;;;;5075701;28;20745;-74
2021/07/25 01:10:36;;;;;;;15.73;14.10;;;;;;;;;;5073550;28;20414;-70
2021/07/25 01:13:05;;;;;;;14.57;13.17;;;;;;;;;;5072629;28;20500;-70
2021/07/25 01:15:31;;;;;;;16.20;14.70;;;;;;;;;;5073187;28;20414;-74
2021/07/25 01:17:59;;;;;;;15.77;14.27;;;;;;;;;;5073273;28;20419;-72
2021/07/25 01:20:26;;;;;;;16.17;13.80;;;;;;;;;;5074569;28;20501;-72
2021/07/25 01:22:53;;;;;;;15.53;14.03;;;;;;;;;;5075010;28;20465;-72
2021/07/25 01:25:20;;;;;;;15.10;13.50;;;;;;;;;;5073266;28;20411;-73
2021/07/25 01:27:50;;;;;;;15.20;13.70;;;;;;;;;;5072106;28;20497;-69
2021/07/25 01:30:21;;;;;;;14.57;13.17;;;;;;;;;;5072622;28;20406;-71
2021/07/25 01:32:47;;;;;;;14.47;13.07;;;;;;;;;;5073877;28;20512;-72
2021/07/25 01:35:14;;;;;;;16.33;14.77;;;;;;;;;;5076358;28;20472;-72
2021/07/25 01:37:41;;;;;;;16.73;15.03;;;;;;;;;;5075782;28;20493;-74
2021/07/25 01:40:36;;;;;;;14.03;12.73;;;;;;;;;;5076340;28;20414;-73
2021/07/25 01:43:03;;;;;;;15.03;13.50;;;;;;;;;;5067272;28;20481;-71
2021/07/25 01:45:29;;;;;;;14.67;13.37;;;;;;;;;;5076440;28;20418;-69
2021/07/25 01:47:55;;;;;;;14.70;13.23;;;;;;;;;;5075506;28;20418;-70
2021/07/25 01:50:21;;;;;;;14.93;13.53;;;;;;;;;;5075974;28;20894;-70
2021/07/25 01:52:47;;;;;;;16.33;13.77;;;;;;;;;;5075748;28;20437;-73
2021/07/25 01:55:13;;;;;;;15.10;13.53;;;;;;;;;;5075838;28;20756;-71
2021/07/25 01:57:39;;;;;;;15.40;13.90;;;;;;;;;;5075693;28;20459;-70
2021/07/25 02:00:06;;;;;;;15.47;14.03;;;;;;;;;;5076168;28;20422;-73
2021/07/25 02:02:32;;;;;;;16.07;14.47;;;;;;;;;;5075716;28;20466;-72
2021/07/25 02:04:58;;;;;;;16.23;14.63;;;;;;;;;;5075589;28;20474;-71
2021/07/25 02:07:24;;;;;;;15.80;14.20;;;;;;;;;;5075462;28;20434;-70
2021/07/25 02:09:50;;;;;;;16.20;14.60;;;;;;;;;;5075790;28;20411;-70
2021/07/25 02:12:16;;;;;;;15.77;14.10;;;;;;;;;;5075793;28;20430;-73
2021/07/25 02:14:42;;;;;;;15.70;14.13;;;;;;;;;;5075729;28;20945;-70
2021/07/25 02:17:09;;;;;;;17.57;14.70;;;;;;;;;;5075219;28;20414;-72
2021/07/25 02:19:35;;;;;;;17.10;15.30;;;;;;;;;;5075763;28;20458;-74
2021/07/25 02:22:01;;;;;;;16.20;14.50;;;;;;;;;;5075390;28;20576;-72
2021/07/25 02:24:27;;;;;;;16.40;14.80;;;;;;;;;;5075749;28;20433;-72
2021/07/25 02:26:53;;;;;;;15.27;13.77;;;;;;;;;;5075110;28;20418;-71
2021/07/25 02:29:19;;;;;;;16.73;14.80;;;;;;;;;;5075505;28;20415;-72
2021/07/25 02:31:45;;;;;;;17.80;16.10;;;;;;;;;;5075164;28;20783;-71
2021/07/25 02:34:11;;;;;;;16.53;14.80;;;;;;;;;;5075410;28;20402;-72
2021/07/25 02:36:38;;;;;;;17.90;16.00;;;;;;;;;;5074997;28;20422;-73
2021/07/25 02:39:05;;;;;;;16.73;15.13;;;;;;;;;;5075253;28;20418;-71
2021/07/25 02:41:31;;;;;;;16.63;15.07;;;;;;;;;;5074839;28;20571;-70
2021/07/25 02:43:57;;;;;;;17.70;16.00;;;;;;;;;;5074286;28;20509;-68
2021/07/25 02:46:23;;;;;;;17.67;15.97;;;;;;;;;;5075053;28;20403;-71
2021/07/25 02:48:49;;;;;;;18.17;16.33;;;;;;;;;;5074754;28;20753;-69
2021/07/25 02:51:15;;;;;;;18.80;17.00;;;;;;;;;;5075053;28;20425;-74
2021/07/25 02:53:41;;;;;;;19.00;17.10;;;;;;;;;;5074786;28;20458;-73
2021/07/25 02:56:07;;;;;;;18.50;16.70;;;;;;;;;;5075048;28;20459;-71
2021/07/25 02:58:33;;;;;;;18.60;16.80;;;;;;;;;;5074544;28;20868;-72
2021/07/25 03:00:59;;;;;;;17.73;16.03;;;;;;;;;;5074905;28;20468;-72
2021/07/25 03:03:25;;;;;;;17.57;15.80;;;;;;;;;;5074580;28;20438;-70
2021/07/25 03:05:51;;;;;;;18.53;16.63;;;;;;;;;;5074505;28;20449;-70
2021/07/25 03:08:17;;;;;;;17.80;16.00;;;;;;;;;;5075908;28;20417;-74
2021/07/25 03:10:43;;;;;;;18.40;16.60;;;;;;;;;;5074870;28;20407;-74
2021/07/25 03:13:09;;;;;;;17.33;15.57;;;;;;;;;;5074791;28;20434;-69
2021/07/25 03:15:35;;;;;;;18.37;16.43;;;;;;;;;;5074495;28;20409;-71
2021/07/25 03:18:01;;;;;;;18.43;16.63;;;;;;;;;;5073844;28;20776;-73
2021/07/25 03:20:27;;;;;;;19.60;17.63;;;;;;;;;;5074366;28;20907;-71
2021/07/25 03:22:53;;;;;;;19.57;17.47;;;;;;;;;;5074302;28;20464;-69
2021/07/25 03:25:19;;;;;;;18.80;16.40;;;;;;;;;;5074452;28;20445;-72
2021/07/25 03:27:46;;;;;;;20.33;18.20;;;;;;;;;;5073869;28;20772;-70
2021/07/25 03:30:12;;;;;;;20.03;18.10;;;;;;;;;;5074340;28;20417;-73
2021/07/25 03:32:38;;;;;;;18.47;16.63;;;;;;;;;;5074119;28;20494;-70
2021/07/25 03:35:04;;;;;;;19.87;17.87;;;;;;;;;;5072676;28;20485;-73
2021/07/25 03:37:30;;;;;;;19.97;17.80;;;;;;;;;;5073844;28;20418;-73
2021/07/25 03:39:57;;;;;;;20.47;18.27;;;;;;;;;;5074087;28;20844;-73
2021/07/25 03:42:23;;;;;;;19.73;17.63;;;;;;;;;;5073807;28;20553;-72
2021/07/25 03:44:49;;;;;;;20.07;18.17;;;;;;;;;;5074217;28;20775;-71
2021/07/25 03:47:16;;;;;;;21.30;19.20;;;;;;;;;;5073389;28;20448;-71
2021/07/25 03:49:43;;;;;;;21.30;19.10;;;;;;;;;;5074025;28;20414;-73
2021/07/25 03:52:11;;;;;;;22.97;20.70;;;;;;;;;;5073812;28;20438;-70
2021/07/25 03:54:39;;;;;;;22.20;19.90;;;;;;;;;;5067299;28;20415;-73
2021/07/25 03:57:06;;;;;;;23.63;21.20;;;;;;;;;;5073089;28;20418;-70
2021/07/25 03:59:32;;;;;;;22.30;20.00;;;;;;;;;;5073555;28;20421;-70
2021/07/25 04:01:58;;;;;;;21.97;19.77;;;;;;;;;;5073514;28;20541;-71
2021/07/25 04:04:24;;;;;;;22.03;19.80;;;;;;;;;;5073413;28;20487;-73
2021/07/25 04:06:50;;;;;;;22.80;20.40;;;;;;;;;;5074190;28;20399;-72
2021/07/25 04:09:16;;;;;;;23.40;21.00;;;;;;;;;;5073566;28;20410;-71
2021/07/25 04:11:42;;;;;;;27.77;24.77;;;;;;;;;;5073639;28;20808;-71
2021/07/25 04:14:08;;;;;;;25.70;22.50;;;;;;;;;;5073437;28;20414;-72
2021/07/25 04:16:34;;;;;;;26.57;23.77;;;;;;;;;;5073329;28;20412;-70
2021/07/25 04:19:01;;;;;;;31.07;25.57;;;;;;;;;;5073283;28;20836;-70
2021/07/25 04:21:27;;;;;;;28.93;25.80;;;;;;;;;;5073548;28;20855;-69
2021/07/25 04:23:53;;;;;;;30.13;27.03;;;;;;;;;;5073556;28;20821;-70
2021/07/25 04:26:19;;;;;;;31.37;26.90;;;;;;;;;;5073118;28;20433;-71
2021/07/25 04:28:45;;;;;;;29.47;26.27;;;;;;;;;;5072754;28;20902;-73
2021/07/25 04:31:11;;;;;;;34.03;28.50;;;;;;;;;;5073136;28;20421;-72
2021/07/25 04:33:38;;;;;;;34.23;29.80;;;;;;;;;;5072900;28;20426;-71
2021/07/25 04:36:11;;;;;;;34.83;29.17;;;;;;;;;;5073190;28;20449;-74
2021/07/25 04:38:37;;;;;;;32.70;29.30;;;;;;;;;;5072716;28;20776;-73
2021/07/25 04:41:04;;;;;;;33.77;30.03;;;;;;;;;;5073223;28;20418;-72
2021/07/25 04:43:31;;;;;;;33.03;28.20;;;;;;;;;;5072942;28;20524;-73
2021/07/25 04:46:06;;;;;;;34.20;27.33;;;;;;;;;;5073330;28;20487;-72
2021/07/25 04:48:46;;;;;;;34.73;28.20;;;;;;;;;;5072496;28;20922;-71
2021/07/25 04:51:13;;;;;;;35.30;31.50;;;;;;;;;;5073508;28;20394;-74
2021/07/25 04:53:43;;;;;;;33.17;28.07;;;;;;;;;;5072957;28;20430;-71
2021/07/25 04:56:10;;;;;;;32.07;28.10;;;;;;;;;;5073049;28;20728;-71
2021/07/25 04:58:39;;;;;;;33.17;29.73;;;;;;;;;;5072623;28;20438;-74
2021/07/25 05:01:05;;;;;;;30.67;27.33;;;;;;;;;;5073439;28;20494;-71
2021/07/25 05:03:33;;;;;;;31.90;28.40;;;;;;;;;;5072897;28;20450;-73
2021/07/25 05:05:59;;;;;;;30.20;27.00;;;;;;;;;;5074061;28;20431;-72
2021/07/25 05:08:25;;;;;;;32.23;28.73;;;;;;;;;;5075096;28;20465;-73
2021/07/25 05:10:57;;;;;;;32.20;28.77;;;;;;;;;;5076896;28;20767;-71
2021/07/25 05:13:25;;;;;;;33.23;29.00;;;;;;;;;;5075617;28;20558;-73
2021/07/25 05:15:52;;;;;;;32.20;28.80;;;;;;;;;;5076899;28;20483;-73
2021/07/25 05:18:25;;;;;;;32.93;29.37;;;;;;;;;;5076451;28;20442;-71
2021/07/25 05:20:54;;;;;;;32.07;28.73;;;;;;;;;;5076858;28;20764;-71
2021/07/25 05:23:32;;;;;;;29.80;26.70;;;;;;;;;;5076305;28;20559;-72
2021/07/25 05:25:58;;;;;;;33.17;27.93;;;;;;;;;;5076666;28;20513;-73
2021/07/25 05:28:26;;;;;;;30.93;27.47;;;;;;;;;;5076225;28;20442;-69
2021/07/25 05:30:52;;;;;;;32.97;29.47;;;;;;;;;;5076480;28;20453;-73
2021/07/25 05:33:19;;;;;;;33.50;29.83;;;;;;;;;;5076500;28;20484;-71
2021/07/25 05:35:45;;;;;;;29.50;26.13;;;;;;;;;;5076604;28;20898;-70
2021/07/25 05:38:11;;;;;;;29.27;26.17;;;;;;;;;;5076047;28;20770;-69
2021/07/25 05:40:37;;;;;;;34.10;27.47;;;;;;;;;;5076236;28;20475;-72
2021/07/25 05:43:03;;;;;;;30.90;26.87;;;;;;;;;;5076176;28;20522;-72
2021/07/25 05:45:29;;;;;;;30.73;27.57;;;;;;;;;;5076237;28;20809;-69
2021/07/25 05:47:55;;;;;;;32.67;27.80;;;;;;;;;;5075863;28;20759;-71
2021/07/25 05:50:21;;;;;;;27.40;24.40;;;;;;;;;;5075982;28;20410;-74
2021/07/25 05:52:57;;;;;;;30.87;27.57;;;;;;;;;;5076128;28;20441;-69
2021/07/25 05:55:24;;;;;;;27.20;24.20;;;;;;;;;;5075971;28;20418;-71
2021/07/25 05:57:50;;;;;;;30.80;24.43;;;;;;;;;;5075636;28;20808;-71
2021/07/25 06:00:17;;;;;;;29.97;25.23;;;;;;;;;;5075897;28;20415;-70
2021/07/25 06:02:59;;;;;;;28.07;25.20;;;;;;;;;;5075962;28;20465;-71
2021/07/25 06:05:26;;;;;;;25.43;22.73;;;;;;;;;;5075601;28;20559;-69
2021/07/25 06:07:53;;;;;;;28.10;24.07;;;;;;;;;;5076606;28;20414;-72
2021/07/25 06:10:19;;;;;;;26.87;23.97;;;;;;;;;;5075929;28;20411;-71
2021/07/25 06:12:46;;;;;;;28.50;24.93;;;;;;;;;;5075895;28;20434;-72
2021/07/25 06:15:12;;;;;;;27.60;24.70;;;;;;;;;;5075492;28;20424;-73
2021/07/25 06:17:38;;;;;;;27.03;24.20;;;;;;;;;;5075363;28;20414;-72
2021/07/25 06:20:04;;;;;;;25.80;23.13;;;;;;;;;;5075605;28;20459;-73
2021/07/25 06:22:37;;;;;;;28.93;24.07;;;;;;;;;;5075371;28;20462;-73
2021/07/25 06:25:03;;;;;;;23.90;21.47;;;;;;;;;;5075256;28;20410;-70
2021/07/25 06:27:29;;;;;;;24.07;21.50;;;;;;;;;;5074765;28;20407;-70
2021/07/25 06:29:55;;;;;;;24.40;21.83;;;;;;;;;;5074953;28;20399;-70
2021/07/25 06:32:21;;;;;;;23.17;20.77;;;;;;;;;;5075352;28;20430;-72
2021/07/25 06:34:47;;;;;;;22.57;20.27;;;;;;;;;;5075175;28;20423;-70
2021/07/25 06:37:13;;;;;;;21.57;19.53;;;;;;;;;;5074939;28;20875;-72
2021/07/25 06:39:39;;;;;;;23.13;20.77;;;;;;;;;;5075170;28;20418;-69
2021/07/25 06:42:08;;;;;;;23.57;21.27;;;;;;;;;;5075207;28;20977;-73
2021/07/25 06:44:34;;;;;;;22.40;20.23;;;;;;;;;;5074977;28;20502;-71
2021/07/25 06:47:00;;;;;;;22.83;20.40;;;;;;;;;;5074686;28;20497;-72
2021/07/25 06:49:26;;;;;;;22.67;20.30;;;;;;;;;;5073701;28;20422;-70
2021/07/25 06:51:52;;;;;;;23.37;20.93;;;;;;;;;;5074953;28;20426;-71
2021/07/25 06:54:18;;;;;;;23.43;20.93;;;;;;;;;;5075096;28;20419;-72
2021/07/25 06:56:44;;;;;;;23.77;20.80;;;;;;;;;;5074690;28;20512;-72
2021/07/25 06:59:10;;;;;;;24.30;21.77;;;;;;;;;;5074850;28;20475;-73
2021/07/25 07:01:36;;;;;;;23.20;20.90;;;;;;;;;;5074267;28;20592;-72
2021/07/25 07:04:02;;;;;;;22.10;19.80;;;;;;;;;;5074868;28;20464;-69
2021/07/25 07:06:28;;;;;;;22.20;19.90;;;;;;;;;;5075485;28;20434;-69
2021/07/25 07:08:54;;;;;;;20.43;18.43;;;;;;;;;;5074336;28;20823;-74
2021/07/25 07:11:26;;;;;;;22.07;19.80;;;;;;;;;;5074459;28;20963;-71
2021/07/25 07:13:54;;;;;;;21.60;19.43;;;;;;;;;;5074478;28;20435;-71
2021/07/25 07:16:20;;;;;;;20.67;18.70;;;;;;;;;;5074365;28;20906;-71
2021/07/25 07:18:46;;;;;;;21.60;19.30;;;;;;;;;;5074004;28;20415;-73
2021/07/25 07:21:12;;;;;;;22.93;20.63;;;;;;;;;;5074211;28;20822;-73
2021/07/25 07:23:38;;;;;;;22.60;20.40;;;;;;;;;;5074269;28;20434;-68
2021/07/25 07:26:04;;;;;;;21.00;18.80;;;;;;;;;;5074227;28;20456;-70
2021/07/25 07:28:30;;;;;;;20.37;18.53;;;;;;;;;;5073916;28;20442;-72
2021/07/25 07:30:56;;;;;;;21.10;19.00;;;;;;;;;;5073752;28;20497;-70
2021/07/25 07:33:23;;;;;;;20.93;18.93;;;;;;;;;;5074348;28;20445;-71
2021/07/25 07:35:50;;;;;;;21.17;19.17;;;;;;;;;;5073810;28;20406;-70
2021/07/25 07:38:17;;;;;;;20.40;18.50;;;;;;;;;;5073788;28;20414;-70
2021/07/25 07:40:44;;;;;;;21.37;19.37;;;;;;;;;;5073869;28;20426;-69
2021/07/25 07:43:10;;;;;;;21.03;18.90;;;;;;;;;;5074078;28;20561;-69
2021/07/25 07:45:37;;;;;;;20.50;18.50;;;;;;;;;;5073824;28;20890;-71
2021/07/25 07:48:04;;;;;;;19.33;17.40;;;;;;;;;;5073295;28;20415;-71
2021/07/25 07:50:30;;;;;;;18.23;16.43;;;;;;;;;;5073832;28;20831;-72
2021/07/25 07:52:57;;;;;;;19.73;17.70;;;;;;;;;;5073704;28;20466;-73
2021/07/25 07:55:23;;;;;;;20.07;18.07;;;;;;;;;;5073686;28;20970;-73
2021/07/25 07:57:49;;;;;;;20.17;18.20;;;;;;;;;;5073356;28;20501;-72
2021/07/25 08:00:15;;;;;;;17.73;15.90;;;;;;;;;;5073716;28;20429;-73
2021/07/25 08:02:42;;;;;;;19.57;17.67;;;;;;;;;;5073431;28;20808;-71
2021/07/25 08:05:08;;;;;;;19.70;17.87;;;;;;;;;;5073488;28;20429;-70
2021/07/25 08:07:34;;;;;;;18.03;16.43;;;;;;;;;;5074419;28;20411;-69
2021/07/25 08:10:00;;;;;;;18.47;16.67;;;;;;;;;;5073534;28;20418;-71
2021/07/25 08:12:26;;;;;;;18.83;17.00;;;;;;;;;;5073312;28;20430;-70
2021/07/25 08:14:52;;;;;;;18.20;16.50;;;;;;;;;;5073698;28;20415;-71
2021/07/25 08:17:18;;;;;;;18.07;16.37;;;;;;;;;;5072859;28;20422;-73
2021/07/25 08:19:44;;;;;;;16.90;15.30;;;;;;;;;;5073314;28;20418;-72
2021/07/25 08:22:10;;;;;;;18.23;16.43;;;;;;;;;;5073112;28;20535;-72
2021/07/25 08:24:38;;;;;;;18.03;16.43;;;;;;;;;;5073319;28;20414;-70
2021/07/25 08:27:05;;;;;;;16.97;15.47;;;;;;;;;;5072898;28;20430;-72
2021/07/25 08:29:31;;;;;;;16.43;14.73;;;;;;;;;;5073244;28;20418;-69
2021/07/25 08:31:59;;;;;;;15.90;14.40;;;;;;;;;;5072992;28;20426;-72
2021/07/25 08:34:25;;;;;;;17.10;15.50;;;;;;;;;;5072912;28;20425;-68
2021/07/25 08:36:51;;;;;;;16.23;14.83;;;;;;;;;;5072737;28;20419;-71
2021/07/25 08:39:17;;;;;;;16.80;15.20;;;;;;;;;;5073264;28;20445;-70
2021/07/25 08:41:46;;;;;;;15.13;13.83;;;;;;;;;;5072710;28;20493;-71
2021/07/25 08:44:31;;;;;;;16.23;14.83;;;;;;;;;;5073034;28;20410;-72
2021/07/25 08:46:57;;;;;;;16.67;15.27;;;;;;;;;;5072767;28;20759;-71
2021/07/25 08:49:35;;;;;;;17.80;16.20;;;;;;;;;;5073091;28;20410;-71
2021/07/25 08:52:04;;;;;;;15.03;13.73;;;;;;;;;;5072969;28;20441;-69
2021/07/25 08:54:30;;;;;;;17.53;15.90;;;;;;;;;;5065208;28;20445;-69
2021/07/25 08:56:59;;;;;;;17.07;15.50;;;;;;;;;;5072537;28;20421;-70
2021/07/25 08:59:28;;;;;;;16.07;14.67;;;;;;;;;;5073126;28;20487;-72
2021/07/25 09:01:59;;;;;;;17.00;15.40;;;;;;;;;;5072311;28;20895;-69
2021/07/25 09:04:25;;;;;;;16.77;15.20;;;;;;;;;;5066218;28;20434;-71
2021/07/25 09:06:51;;;;;;;17.00;15.40;;;;;;;;;;5073894;28;20768;-69
2021/07/25 09:09:19;;;;;;;16.90;15.30;;;;;;;;;;5072646;28;20419;-73
2021/07/25 09:11:46;;;;;;;16.50;15.00;;;;;;;;;;5072616;28;20493;-70
2021/07/25 09:14:12;;;;;;;21.20;19.30;;;;;;;;;;5073042;28;20418;-72
2021/07/25 09:16:38;;;;;;;16.73;15.23;;;;;;;;;;5072289;28;21249;-71
2021/07/25 09:19:05;;;;;;;16.40;14.90;;;;;;;;;;5072736;28;20460;-72
2021/07/25 09:21:37;;;;;;;17.77;16.27;;;;;;;;;;5072749;28;20421;-71
2021/07/25 09:24:21;;;;;;;18.00;16.30;;;;;;;;;;5072775;28;20740;-70
2021/07/25 09:27:01;;;;;;;16.87;15.37;;;;;;;;;;5072198;28;20413;-68
2021/07/25 09:29:28;;;;;;;16.80;15.20;;;;;;;;;;5072649;28;20421;-68
2021/07/25 09:32:10;;;;;;;16.80;15.20;;;;;;;;;;5072502;28;20437;-70
2021/07/25 09:34:57;;;;;;;16.70;15.20;;;;;;;;;;5067334;28;20433;-68
2021/07/25 09:37:23;;;;;;;16.90;15.40;;;;;;;;;;5072139;28;20411;-72
2021/07/25 09:39:52;;;;;;;17.17;15.67;;;;;;;;;;5072791;28;20410;-70
2021/07/25 09:42:28;;;;;;;16.40;15.00;;;;;;;;;;5072391;28;20552;-72
2021/07/25 09:44:56;;;;;;;16.10;14.73;;;;;;;;;;5072560;28;20972;-70
2021/07/25 09:47:30;;;;;;;17.07;15.57;;;;;;;;;;5072051;28;20410;-71
2021/07/25 09:49:56;;;;;;;14.40;13.20;;;;;;;;;;5067672;28;20440;-73
2021/07/25 09:52:30;;;;;;;15.97;14.47;;;;;;;;;;5072268;28;20878;-67
2021/07/25 09:54:56;;;;;;;15.73;14.37;;;;;;;;;;5075369;28;20917;-69
2021/07/25 09:57:24;;;;;;;14.67;13.47;;;;;;;;;;5075791;28;20849;-72
2021/07/25 09:59:51;;;;;;;17.53;15.70;;;;;;;;;;5076047;28;20410;-70
2021/07/25 10:02:30;;;;;;;13.00;12.00;;;;;;;;;;5075512;28;20473;-69
2021/07/25 10:05:14;;;;;;;14.10;12.90;;;;;;;;;;5075445;28;20929;-69
2021/07/25 10:07:41;;;;;;;16.67;15.20;;;;;;;;;;5071446;28;20799;-69
2021/07/25 10:10:11;;;;;;;14.47;13.30;;;;;;;;;;5076088;28;20755;-69
2021/07/25 10:12:39;;;;;;;13.07;12.07;;;;;;;;;;5075882;28;20557;-72
2021/07/25 10:15:09;;;;;;;18.23;16.83;;;;;;;;;;5075744;28;20464;-70
2021/07/25 10:17:39;;;;;;;18.60;17.03;;;;;;;;;;5075562;28;20493;-72
2021/07/25 10:20:07;;;;;;;16.40;14.73;;;;;;;;;;5075710;28;20811;-69
2021/07/25 10:22:34;;;;;;;13.67;12.67;;;;;;;;;;5075184;28;20520;-70
2021/07/25 10:25:02;;;;;;;13.20;12.10;;;;;;;;;;5075697;28;20417;-69
2021/07/25 10:27:31;;;;;;;13.73;12.73;;;;;;;;;;5074809;28;20452;-71
2021/07/25 10:30:00;;;;;;;13.23;12.23;;;;;;;;;;5075808;28;20415;-72
2021/07/25 10:32:28;;;;;;;11.73;11.03;;;;;;;;;;5075002;28;20426;-72
2021/07/25 10:34:55;;;;;;;12.10;11.20;;;;;;;;;;5075489;28;20421;-69
2021/07/25 10:37:22;;;;;;;15.70;14.50;;;;;;;;;;5074687;28;20468;-71
2021/07/25 10:39:50;;;;;;;12.97;11.97;;;;;;;;;;5075360;28;20454;-70
2021/07/25 10:42:24;;;;;;;12.33;11.53;;;;;;;;;;5075002;28;20795;-69
2021/07/25 10:44:50;;;;;;;14.53;13.33;;;;;;;;;;5075155;28;20443;-72
2021/07/25 10:47:22;;;;;;;12.23;11.23;;;;;;;;;;5074660;28;20418;-69
2021/07/25 10:50:07;;;;;;;15.33;14.23;;;;;;;;;;5074954;28;20484;-70
2021/07/25 10:53:00;;;;;;;12.27;11.47;;;;;;;;;;5075028;28;20517;-71
2021/07/25 10:55:38;;;;;;;13.13;12.13;;;;;;;;;;5074848;28;20428;-72
2021/07/25 10:58:20;;;;;;;11.90;11.10;;;;;;;;;;5072102;28;20744;-68
2021/07/25 11:00:50;;;;;;;11.13;10.33;;;;;;;;;;5074723;28;20398;-70
2021/07/25 11:03:31;;;;;;;12.40;11.50;;;;;;;;;;5074748;28;20470;-69
2021/07/25 11:06:05;;;;;;;12.10;11.20;;;;;;;;;;5074050;28;20453;-70
2021/07/25 11:08:32;;;;;;;12.20;11.30;;;;;;;;;;5067981;28;20398;-70
2021/07/25 11:10:58;;;;;;;11.83;11.03;;;;;;;;;;5074804;28;20430;-71
2021/07/25 11:13:38;;;;;;;12.63;11.70;;;;;;;;;;5074260;28;20516;-72
2021/07/25 11:16:24;;;;;;;12.23;11.33;;;;;;;;;;5074944;28;20410;-69
2021/07/25 11:18:50;;;;;;;13.17;12.07;;;;;;;;;;5074305;28;20421;-71
2021/07/25 11:21:31;;;;;;;12.73;11.93;;;;;;;;;;5074378;28;20407;-72
2021/07/25 11:23:57;;;;;;;12.60;11.70;;;;;;;;;;5068604;28;20410;-71
2021/07/25 11:26:32;;;;;;;12.03;11.23;;;;;;;;;;5074194;28;20402;-71
2021/07/25 11:28:59;;;;;;;11.53;10.73;;;;;;;;;;5074167;28;20433;-71
2021/07/25 11:31:35;;;;;;;11.10;10.40;;;;;;;;;;5074134;28;20426;-70
2021/07/25 11:34:02;;;;;;;11.47;10.57;;;;;;;;;;5074109;28;20410;-72
2021/07/25 11:36:28;;;;;;;11.23;10.43;;;;;;;;;;5074077;28;20482;-69
2021/07/25 11:38:55;;;;;;;11.27;10.47;;;;;;;;;;5073950;28;20759;-71
2021/07/25 11:41:24;;;;;;;10.80;10.00;;;;;;;;;;5074187;28;20403;-69
2021/07/25 11:43:53;;;;;;;11.90;11.10;;;;;;;;;;5073818;28;20769;-72
2021/07/25 11:46:30;;;;;;;11.77;10.97;;;;;;;;;;5073688;28;20407;-68
2021/07/25 11:49:09;;;;;;;12.00;11.10;;;;;;;;;;5072392;28;20907;-71
2021/07/25 11:51:36;;;;;;;11.10;10.20;;;;;;;;;;5068731;28;20410;-71
2021/07/25 11:54:02;;;;;;;11.20;10.40;;;;;;;;;;5073716;28;20407;-69
2021/07/25 11:56:29;;;;;;;10.70;9.90;;;;;;;;;;5073963;28;20399;-72
2021/07/25 11:59:02;;;;;;;11.03;10.33;;;;;;;;;;5073374;28;20434;-72
2021/07/25 12:01:28;;;;;;;10.57;9.77;;;;;;;;;;5073576;28;20786;-70
2021/07/25 12:03:54;;;;;;;10.73;10.03;;;;;;;;;;5071910;28;20459;-71
2021/07/25 12:06:20;;;;;;;11.87;11.07;;;;;;;;;;5074881;28;20425;-68
2021/07/25 12:09:22;;;;;;;10.77;10.07;;;;;;;;;;5073234;28;20491;-71
2021/07/25 12:11:48;;;;;;;11.20;10.40;;;;;;;;;;5051014;28;20506;-69
2021/07/25 12:14:14;;;;;;;10.40;9.70;;;;;;;;;;5068908;28;20422;-69
2021/07/25 12:16:47;;;;;;;10.80;10.10;;;;;;;;;;5072721;28;20417;-71
2021/07/25 12:19:15;;;;;;;11.60;10.60;;;;;;;;;;5073291;28;20406;-72
2021/07/25 12:21:41;;;;;;;10.80;10.00;;;;;;;;;;5073343;28;20415;-72
2021/07/25 12:24:24;;;;;;;11.80;10.90;;;;;;;;;;5073273;28;20410;-68
2021/07/25 12:26:50;;;;;;;24.30;22.40;;;;;;;;;;5072992;28;20407;-70
2021/07/25 12:29:54;;;;;;;13.47;12.33;;;;;;;;;;5073480;28;20460;-69
2021/07/25 12:32:21;;;;;;;13.60;12.40;;;;;;;;;;5027798;28;20447;-72
2021/07/25 12:34:47;;;;;;;11.17;10.37;;;;;;;;;;5030988;28;20405;-70
2021/07/25 12:37:29;;;;;;;11.33;10.43;;;;;;;;;;5044860;28;20415;-72
2021/07/25 12:40:04;;;;;;;10.60;9.80;;;;;;;;;;5073120;28;20418;-72
2021/07/25 12:42:40;;;;;;;11.90;11.00;;;;;;;;;;5072950;28;20545;-72
2021/07/25 12:45:41;;;;;;;12.40;11.30;;;;;;;;;;5072901;28;20411;-73
2021/07/25 12:48:11;;;;;;;11.40;10.50;;;;;;;;;;5030386;28;20423;-73
2021/07/25 12:50:45;;;;;;;10.83;9.97;;;;;;;;;;5065411;28;20413;-73
2021/07/25 12:53:30;;;;;;;10.77;9.87;;;;;;;;;;5072616;28;20487;-74
2021/07/25 12:55:59;;;;;;;12.53;11.63;;;;;;;;;;5073092;28;20866;-72
2021/07/25 12:58:36;;;;;;;11.10;10.30;;;;;;;;;;5072606;28;20414;-69
2021/07/25 13:03:45;;;;;;;11.50;10.60;;;;;;;;;;5072640;28;20466;-70
2021/07/25 13:06:12;;;;;;;13.23;12.20;;;;;;;;;;5068427;28;20479;-71
2021/07/25 13:08:38;;;;;;;11.83;10.70;;;;;;;;;;5072169;28;20501;-72
2021/07/25 13:11:04;;;;;;;11.37;10.47;;;;;;;;;;5072923;28;20853;-73
2021/07/25 13:13:31;;;;;;;12.63;11.53;;;;;;;;;;5072943;28;20430;-71
2021/07/25 13:15:57;;;;;;;12.23;11.23;;;;;;;;;;5072693;28;20493;-71
2021/07/25 13:18:23;;;;;;;13.87;12.73;;;;;;;;;;5072236;28;20950;-70
2021/07/25 13:20:49;;;;;;;11.93;10.93;;;;;;;;;;5072441;28;20410;-72
2021/07/25 13:23:16;;;;;;;11.30;10.50;;;;;;;;;;5072596;28;20994;-70
2021/07/25 13:25:43;;;;;;;10.53;9.63;;;;;;;;;;5072480;28;20421;-71
2021/07/25 13:28:09;;;;;;;11.50;10.60;;;;;;;;;;5072740;28;20425;-71
2021/07/25 13:30:35;;;;;;;10.87;9.97;;;;;;;;;;5076529;28;20438;-73
2021/07/25 13:33:01;;;;;;;11.30;10.40;;;;;;;;;;5076593;28;20466;-69
2021/07/25 13:35:27;;;;;;;10.10;9.30;;;;;;;;;;5076252;28;20422;-70
2021/07/25 13:37:53;;;;;;;10.70;9.80;;;;;;;;;;5076207;28;20419;-71
2021/07/25 13:40:20;;;;;;;10.53;9.67;;;;;;;;;;5076246;28;20497;-70
2021/07/25 13:42:46;;;;;;;10.90;10.10;;;;;;;;;;5076194;28;20520;-70
2021/07/25 13:45:12;;;;;;;9.80;9.00;;;;;;;;;;5076052;28;20428;-71
2021/07/25 13:47:38;;;;;;;11.37;10.47;;;;;;;;;;5075978;28;20415;-69
2021/07/25 13:50:05;;;;;;;11.43;10.53;;;;;;;;;;5076220;28;20406;-72
2021/07/25 13:52:31;;;;;;;11.00;10.10;;;;;;;;;;5076060;28;20438;-70
2021/07/25 13:54:57;;;;;;;11.07;10.13;;;;;;;;;;5075929;28;20547;-70
2021/07/25 13:57:23;;;;;;;10.73;9.63;;;;;;;;;;5075795;28;20795;-71
2021/07/25 13:59:49;;;;;;;11.57;10.63;;;;;;;;;;5075866;28;20744;-72
2021/07/25 14:02:15;;;;;;;11.70;10.60;;;;;;;;;;5075922;28;20546;-70
2021/07/25 14:04:41;;;;;;;10.73;9.93;;;;;;;;;;5075594;28;20422;-73
2021/07/25 14:07:07;;;;;;;10.53;9.73;;;;;;;;;;5077177;28;20411;-71
2021/07/25 14:09:34;;;;;;;10.80;9.90;;;;;;;;;;5075644;28;20402;-71
2021/07/25 14:12:00;;;;;;;11.57;10.67;;;;;;;;;;5075748;28;20438;-73
2021/07/25 14:14:29;;;;;;;11.67;10.60;;;;;;;;;;5075610;28;20419;-71
2021/07/25 14:16:59;;;;;;;11.30;10.40;;;;;;;;;;5075136;28;20433;-70
2021/07/25 14:19:25;;;;;;;10.93;10.10;;;;;;;;;;5075549;28;20497;-70
2021/07/25 14:21:51;;;;;;;11.10;10.07;;;;;;;;;;5075426;28;21021;-70
2021/07/25 14:24:18;;;;;;;9.97;9.27;;;;;;;;;;5075641;28;20756;-70
2021/07/25 14:26:44;;;;;;;10.67;9.87;;;;;;;;;;5074928;28;20407;-72
2021/07/25 14:29:10;;;;;;;10.70;9.90;;;;;;;;;;5075380;28;20411;-72